sensor_id;sensor_type;location;lat;lon;timestamp;temperature;humidity
8002;DHT22;4046;48.774;8.732;2022-11-20T00:00:28;22.60;99.90
8002;DHT22;4046;48.774;8.732;2022-11-20T00:02:54;22.60;99.90
8002;DHT22;4046;48.774;8.732;2022-11-20T00:05:20;22.60;99.90
8002;DHT22;4046;48.774;8.732;2022-11-20T00:07:46;22.50;99.90
8002;DHT22;4046;48.774;8.732;2022-11-20T00:10:13;22.60;99.90
8002;DHT22;4046;48.774;8.732;2022-11-20T00:12:39;22.70;99.90
8002;DHT22;4046;48.774;8.732;2022-11-20T00:15:05;22.60;99.90
8002;DHT22;4046;48.774;8.732;2022-11-20T00:17:32;22.60;99.90
8002;DHT22;4046;48.774;8.732;2022-11-20T00:19:58;22.60;99.90
8002;DHT22;4046;48.774;8.732;2022-11-20T00:22:24;22.60;99.90
8002;DHT22;4046;48.774;8.732;2022-11-20T00:24:50;22.60;99.90
8002;DHT22;4046;48.774;8.732;2022-11-20T00:27:16;22.60;99.90
8002;DHT22;4046;48.774;8.732;2022-11-20T00:29:42;22.60;99.90
8002;DHT22;4046;48.774;8.732;2022-11-20T00:32:09;22.60;99.90
8002;DHT22;4046;48.774;8.732;2022-11-20T00:34:35;22.60;99.90
8002;DHT22;4046;48.774;8.732;2022-11-20T00:37:01;22.60;99.90
8002;DHT22;4046;48.774;8.732;2022-11-20T00:39:27;22.60;99.90
8002;DHT22;4046;48.774;8.732;2022-11-20T00:41:53;22.60;99.90
8002;DHT22;4046;48.774;8.732;2022-11-20T00:44:19;22.60;99.90
8002;DHT22;4046;48.774;8.732;2022-11-20T00:46:46;22.60;99.90
8002;DHT22;4046;48.774;8.732;2022-11-20T00:49:12;22.60;99.90
8002;DHT22;4046;48.774;8.732;2022-11-20T00:51:38;22.60;99.90
8002;DHT22;4046;48.774;8.732;2022-11-20T00:54:04;22.60;99.90
8002;DHT22;4046;48.774;8.732;2022-11-20T00:56:30;22.60;99.90
8002;DHT22;4046;48.774;8.732;2022-11-20T00:58:59;22.60;99.90
8002;DHT22;4046;48.774;8.732;2022-11-20T01:01:26;22.50;99.90
8002;DHT22;4046;48.774;8.732;2022-11-20T01:03:54;22.50;99.90
8002;DHT22;4046;48.774;8.732;2022-11-20T01:06:23;22.50;99.90
8002;DHT22;4046;48.774;8.732;2022-11-20T01:08:51;22.60;99.90
8002;DHT22;4046;48.774;8.732;2022-11-20T01:11:22;22.50;99.90
8002;DHT22;4046;48.774;8.732;2022-11-20T01:13:50;22.60;99.90
8002;DHT22;4046;48.774;8.732;2022-11-20T01:18:47;22.50;99.90
8002;DHT22;4046;48.774;8.732;2022-11-20T01:21:16;22.50;99.90
8002;DHT22;4046;48.774;8.732;2022-11-20T01:23:44;22.50;99.90
8002;DHT22;4046;48.774;8.732;2022-11-20T01:26:13;22.50;99.90
8002;DHT22;4046;48.774;8.732;2022-11-20T01:28:40;22.50;99.90
8002;DHT22;4046;48.774;8.732;2022-11-20T01:31:19;22.50;99.90
8002;DHT22;4046;48.774;8.732;2022-11-20T01:33:48;22.50;99.90
8002;DHT22;4046;48.774;8.732;2022-11-20T01:36:16;22.50;99.90
8002;DHT22;4046;48.774;8.732;2022-11-20T01:38:43;22.50;99.90
8002;DHT22;4046;48.774;8.732;2022-11-20T01:41:11;22.40;99.90
8002;DHT22;4046;48.774;8.732;2022-11-20T01:43:58;22.40;99.90
8002;DHT22;4046;48.774;8.732;2022-11-20T01:46:25;22.40;99.90
8002;DHT22;4046;48.774;8.732;2022-11-20T01:49:10;22.50;99.90
8002;DHT22;4046;48.774;8.732;2022-11-20T01:51:45;22.50;99.90
8002;DHT22;4046;48.774;8.732;2022-11-20T01:54:19;22.50;99.90
8002;DHT22;4046;48.774;8.732;2022-11-20T01:56:48;22.50;99.90
8002;DHT22;4046;48.774;8.732;2022-11-20T01:59:18;22.50;99.90
8002;DHT22;4046;48.774;8.732;2022-11-20T02:01:45;22.50;99.90
8002;DHT22;4046;48.774;8.732;2022-11-20T02:04:13;22.50;99.90
8002;DHT22;4046;48.774;8.732;2022-11-20T02:06:45;22.50;99.90
8002;DHT22;4046;48.774;8.732;2022-11-20T02:09:14;22.50;99.90
8002;DHT22;4046;48.774;8.732;2022-11-20T02:11:40;22.40;99.90
8002;DHT22;4046;48.774;8.732;2022-11-20T02:14:07;22.40;99.90
8002;DHT22;4046;48.774;8.732;2022-11-20T02:16:37;22.40;99.90
8002;DHT22;4046;48.774;8.732;2022-11-20T02:19:13;22.40;99.90
8002;DHT22;4046;48.774;8.732;2022-11-20T02:22:12;22.40;99.90
8002;DHT22;4046;48.774;8.732;2022-11-20T02:24:41;22.40;99.90
8002;DHT22;4046;48.774;8.732;2022-11-20T02:27:14;22.40;99.90
8002;DHT22;4046;48.774;8.732;2022-11-20T02:29:53;22.40;99.90
8002;DHT22;4046;48.774;8.732;2022-11-20T02:32:33;22.40;99.90
8002;DHT22;4046;48.774;8.732;2022-11-20T02:37:45;22.40;99.90
8002;DHT22;4046;48.774;8.732;2022-11-20T02:40:13;22.40;99.90
8002;DHT22;4046;48.774;8.732;2022-11-20T02:42:39;22.50;99.90
8002;DHT22;4046;48.774;8.732;2022-11-20T02:45:06;22.40;99.90
8002;DHT22;4046;48.774;8.732;2022-11-20T02:47:32;22.50;99.90
8002;DHT22;4046;48.774;8.732;2022-11-20T02:49:59;22.50;99.90
8002;DHT22;4046;48.774;8.732;2022-11-20T02:52:25;22.50;99.90
8002;DHT22;4046;48.774;8.732;2022-11-20T02:54:52;22.50;99.90
8002;DHT22;4046;48.774;8.732;2022-11-20T02:57:18;22.50;99.90
8002;DHT22;4046;48.774;8.732;2022-11-20T02:59:44;22.50;99.90
8002;DHT22;4046;48.774;8.732;2022-11-20T03:02:11;22.50;99.90
8002;DHT22;4046;48.774;8.732;2022-11-20T03:04:37;22.60;99.90
8002;DHT22;4046;48.774;8.732;2022-11-20T03:07:03;22.60;99.90
8002;DHT22;4046;48.774;8.732;2022-11-20T03:09:29;22.60;99.90
8002;DHT22;4046;48.774;8.732;2022-11-20T03:11:56;22.60;99.90
8002;DHT22;4046;48.774;8.732;2022-11-20T03:14:22;22.60;99.90
8002;DHT22;4046;48.774;8.732;2022-11-20T03:16:48;22.60;99.90
8002;DHT22;4046;48.774;8.732;2022-11-20T03:19:14;22.60;99.90
8002;DHT22;4046;48.774;8.732;2022-11-20T03:21:40;22.60;99.90
8002;DHT22;4046;48.774;8.732;2022-11-20T03:24:07;22.60;99.90
8002;DHT22;4046;48.774;8.732;2022-11-20T03:26:33;22.60;99.90
8002;DHT22;4046;48.774;8.732;2022-11-20T03:29:01;22.60;99.90
8002;DHT22;4046;48.774;8.732;2022-11-20T03:31:30;22.60;99.90
8002;DHT22;4046;48.774;8.732;2022-11-20T03:33:58;22.60;99.90
8002;DHT22;4046;48.774;8.732;2022-11-20T03:36:25;22.60;99.90
8002;DHT22;4046;48.774;8.732;2022-11-20T03:38:53;22.60;99.90
8002;DHT22;4046;48.774;8.732;2022-11-20T03:41:28;22.60;99.90
8002;DHT22;4046;48.774;8.732;2022-11-20T03:44:00;22.60;99.90
8002;DHT22;4046;48.774;8.732;2022-11-20T03:46:27;22.60;99.90
8002;DHT22;4046;48.774;8.732;2022-11-20T03:48:54;22.60;99.90
8002;DHT22;4046;48.774;8.732;2022-11-20T03:51:23;22.60;99.90
8002;DHT22;4046;48.774;8.732;2022-11-20T03:53:51;22.60;99.90
8002;DHT22;4046;48.774;8.732;2022-11-20T03:56:23;22.60;99.90
8002;DHT22;4046;48.774;8.732;2022-11-20T03:58:49;22.60;99.90
8002;DHT22;4046;48.774;8.732;2022-11-20T04:01:21;22.60;99.90
8002;DHT22;4046;48.774;8.732;2022-11-20T04:03:49;22.60;99.90
8002;DHT22;4046;48.774;8.732;2022-11-20T04:06:20;22.60;99.90
8002;DHT22;4046;48.774;8.732;2022-11-20T04:08:47;22.60;99.90
8002;DHT22;4046;48.774;8.732;2022-11-20T04:11:19;22.60;99.90
8002;DHT22;4046;48.774;8.732;2022-11-20T04:13:48;22.60;99.90
8002;DHT22;4046;48.774;8.732;2022-11-20T04:16:15;22.60;99.90
8002;DHT22;4046;48.774;8.732;2022-11-20T04:18:41;22.60;99.90
8002;DHT22;4046;48.774;8.732;2022-11-20T04:21:07;22.60;99.90
8002;DHT22;4046;48.774;8.732;2022-11-20T04:23:33;22.60;99.90
8002;DHT22;4046;48.774;8.732;2022-11-20T04:26:04;22.60;99.90
8002;DHT22;4046;48.774;8.732;2022-11-20T04:28:31;22.60;99.90
8002;DHT22;4046;48.774;8.732;2022-11-20T04:31:06;22.60;99.90
8002;DHT22;4046;48.774;8.732;2022-11-20T04:33:33;22.60;99.90
8002;DHT22;4046;48.774;8.732;2022-11-20T04:36:04;22.60;99.90
8002;DHT22;4046;48.774;8.732;2022-11-20T04:38:31;22.60;99.90
8002;DHT22;4046;48.774;8.732;2022-11-20T04:41:03;22.60;99.90
8002;DHT22;4046;48.774;8.732;2022-11-20T04:43:29;22.60;99.90
8002;DHT22;4046;48.774;8.732;2022-11-20T04:45:56;22.60;99.90
8002;DHT22;4046;48.774;8.732;2022-11-20T04:48:24;22.60;99.90
8002;DHT22;4046;48.774;8.732;2022-11-20T04:50:51;22.60;99.90
8002;DHT22;4046;48.774;8.732;2022-11-20T04:53:17;22.60;99.90
8002;DHT22;4046;48.774;8.732;2022-11-20T04:55:44;22.60;99.90
8002;DHT22;4046;48.774;8.732;2022-11-20T04:58:11;22.60;99.90
8002;DHT22;4046;48.774;8.732;2022-11-20T05:00:37;22.60;99.90
8002;DHT22;4046;48.774;8.732;2022-11-20T05:03:03;22.60;99.90
8002;DHT22;4046;48.774;8.732;2022-11-20T05:05:29;22.60;99.90
8002;DHT22;4046;48.774;8.732;2022-11-20T05:07:56;22.60;99.90
8002;DHT22;4046;48.774;8.732;2022-11-20T05:10:24;22.60;99.90
8002;DHT22;4046;48.774;8.732;2022-11-20T05:12:51;22.60;99.90
8002;DHT22;4046;48.774;8.732;2022-11-20T05:15:17;22.60;99.90
8002;DHT22;4046;48.774;8.732;2022-11-20T05:17:51;22.60;99.90
8002;DHT22;4046;48.774;8.732;2022-11-20T05:20:17;22.60;99.90
8002;DHT22;4046;48.774;8.732;2022-11-20T05:22:44;22.60;99.90
8002;DHT22;4046;48.774;8.732;2022-11-20T05:25:11;22.60;99.90
8002;DHT22;4046;48.774;8.732;2022-11-20T05:27:38;22.60;99.90
8002;DHT22;4046;48.774;8.732;2022-11-20T05:30:05;22.60;99.90
8002;DHT22;4046;48.774;8.732;2022-11-20T05:32:31;22.60;99.90
8002;DHT22;4046;48.774;8.732;2022-11-20T05:34:57;22.60;99.90
8002;DHT22;4046;48.774;8.732;2022-11-20T05:37:24;22.60;99.90
8002;DHT22;4046;48.774;8.732;2022-11-20T05:39:50;22.50;99.90
8002;DHT22;4046;48.774;8.732;2022-11-20T05:42:16;22.60;99.90
8002;DHT22;4046;48.774;8.732;2022-11-20T05:45:02;22.60;99.90
8002;DHT22;4046;48.774;8.732;2022-11-20T05:47:32;22.60;99.90
8002;DHT22;4046;48.774;8.732;2022-11-20T05:49:58;22.60;99.90
8002;DHT22;4046;48.774;8.732;2022-11-20T05:52:24;22.60;99.90
8002;DHT22;4046;48.774;8.732;2022-11-20T05:54:53;22.60;99.90
8002;DHT22;4046;48.774;8.732;2022-11-20T05:57:19;22.50;99.90
8002;DHT22;4046;48.774;8.732;2022-11-20T05:59:45;22.50;99.90
8002;DHT22;4046;48.774;8.732;2022-11-20T06:02:12;22.50;99.90
8002;DHT22;4046;48.774;8.732;2022-11-20T06:04:38;22.50;99.90
8002;DHT22;4046;48.774;8.732;2022-11-20T06:07:05;22.40;99.90
8002;DHT22;4046;48.774;8.732;2022-11-20T06:09:32;22.40;99.90
8002;DHT22;4046;48.774;8.732;2022-11-20T06:11:59;22.40;99.90
8002;DHT22;4046;48.774;8.732;2022-11-20T06:14:25;22.30;99.90
8002;DHT22;4046;48.774;8.732;2022-11-20T06:16:51;22.30;99.90
8002;DHT22;4046;48.774;8.732;2022-11-20T06:19:17;22.30;99.90
8002;DHT22;4046;48.774;8.732;2022-11-20T06:21:43;22.30;99.90
8002;DHT22;4046;48.774;8.732;2022-11-20T06:24:10;22.30;99.90
8002;DHT22;4046;48.774;8.732;2022-11-20T06:26:36;22.30;99.90
8002;DHT22;4046;48.774;8.732;2022-11-20T06:29:03;22.30;99.90
8002;DHT22;4046;48.774;8.732;2022-11-20T06:31:29;22.30;99.90
8002;DHT22;4046;48.774;8.732;2022-11-20T06:33:55;22.30;99.90
8002;DHT22;4046;48.774;8.732;2022-11-20T06:36:22;22.20;99.90
8002;DHT22;4046;48.774;8.732;2022-11-20T06:38:49;22.30;99.90
8002;DHT22;4046;48.774;8.732;2022-11-20T06:41:18;22.30;99.90
8002;DHT22;4046;48.774;8.732;2022-11-20T06:43:45;22.30;99.90
8002;DHT22;4046;48.774;8.732;2022-11-20T06:46:12;22.30;99.90
8002;DHT22;4046;48.774;8.732;2022-11-20T06:48:39;22.30;99.90
8002;DHT22;4046;48.774;8.732;2022-11-20T06:51:06;22.20;99.90
8002;DHT22;4046;48.774;8.732;2022-11-20T06:53:34;22.20;99.90
8002;DHT22;4046;48.774;8.732;2022-11-20T06:56:00;22.20;99.90
8002;DHT22;4046;48.774;8.732;2022-11-20T06:58:28;22.20;99.90
8002;DHT22;4046;48.774;8.732;2022-11-20T07:01:01;22.20;99.90
8002;DHT22;4046;48.774;8.732;2022-11-20T07:03:27;22.20;99.90
8002;DHT22;4046;48.774;8.732;2022-11-20T07:05:58;22.20;99.90
8002;DHT22;4046;48.774;8.732;2022-11-20T07:08:25;22.20;99.90
8002;DHT22;4046;48.774;8.732;2022-11-20T07:10:51;22.20;99.90
8002;DHT22;4046;48.774;8.732;2022-11-20T07:13:18;22.20;99.90
8002;DHT22;4046;48.774;8.732;2022-11-20T07:15:44;22.10;99.90
8002;DHT22;4046;48.774;8.732;2022-11-20T07:18:10;22.20;99.90
8002;DHT22;4046;48.774;8.732;2022-11-20T07:20:37;22.20;99.90
8002;DHT22;4046;48.774;8.732;2022-11-20T07:23:03;22.10;99.90
8002;DHT22;4046;48.774;8.732;2022-11-20T07:25:29;22.20;99.90
8002;DHT22;4046;48.774;8.732;2022-11-20T07:27:57;22.20;99.90
8002;DHT22;4046;48.774;8.732;2022-11-20T07:30:24;22.10;99.90
8002;DHT22;4046;48.774;8.732;2022-11-20T07:32:52;22.10;99.90
8002;DHT22;4046;48.774;8.732;2022-11-20T07:35:19;22.20;99.90
8002;DHT22;4046;48.774;8.732;2022-11-20T07:37:45;22.20;99.90
8002;DHT22;4046;48.774;8.732;2022-11-20T07:40:12;22.10;99.90
8002;DHT22;4046;48.774;8.732;2022-11-20T07:42:41;22.20;99.90
8002;DHT22;4046;48.774;8.732;2022-11-20T07:45:12;22.10;99.90
8002;DHT22;4046;48.774;8.732;2022-11-20T07:47:38;22.10;99.90
8002;DHT22;4046;48.774;8.732;2022-11-20T07:50:05;22.10;99.90
8002;DHT22;4046;48.774;8.732;2022-11-20T07:52:31;22.10;99.90
8002;DHT22;4046;48.774;8.732;2022-11-20T07:54:57;22.10;99.90
8002;DHT22;4046;48.774;8.732;2022-11-20T07:57:23;22.10;99.90
8002;DHT22;4046;48.774;8.732;2022-11-20T07:59:50;22.10;99.90
8002;DHT22;4046;48.774;8.732;2022-11-20T08:02:16;22.10;99.90
8002;DHT22;4046;48.774;8.732;2022-11-20T08:04:42;22.10;99.90
8002;DHT22;4046;48.774;8.732;2022-11-20T08:07:08;22.10;99.90
8002;DHT22;4046;48.774;8.732;2022-11-20T08:09:34;22.10;99.90
8002;DHT22;4046;48.774;8.732;2022-11-20T08:12:01;22.10;99.90
8002;DHT22;4046;48.774;8.732;2022-11-20T08:14:45;22.10;99.90
8002;DHT22;4046;48.774;8.732;2022-11-20T08:17:12;22.10;99.90
8002;DHT22;4046;48.774;8.732;2022-11-20T08:19:38;22.10;99.90
8002;DHT22;4046;48.774;8.732;2022-11-20T08:22:04;22.10;99.90
8002;DHT22;4046;48.774;8.732;2022-11-20T08:24:30;22.10;99.90
8002;DHT22;4046;48.774;8.732;2022-11-20T08:26:58;22.10;99.90
8002;DHT22;4046;48.774;8.732;2022-11-20T08:29:26;22.10;99.90
8002;DHT22;4046;48.774;8.732;2022-11-20T08:31:53;22.10;99.90
8002;DHT22;4046;48.774;8.732;2022-11-20T08:34:19;22.10;99.90
8002;DHT22;4046;48.774;8.732;2022-11-20T08:36:45;22.10;99.90
8002;DHT22;4046;48.774;8.732;2022-11-20T08:39:12;22.10;99.90
8002;DHT22;4046;48.774;8.732;2022-11-20T08:41:39;22.10;99.90
8002;DHT22;4046;48.774;8.732;2022-11-20T08:44:06;22.10;99.90
8002;DHT22;4046;48.774;8.732;2022-11-20T08:46:35;22.10;99.90
8002;DHT22;4046;48.774;8.732;2022-11-20T08:49:06;22.10;99.90
8002;DHT22;4046;48.774;8.732;2022-11-20T08:51:34;22.10;99.90
8002;DHT22;4046;48.774;8.732;2022-11-20T08:54:00;22.10;99.90
8002;DHT22;4046;48.774;8.732;2022-11-20T08:56:26;22.10;99.90
8002;DHT22;4046;48.774;8.732;2022-11-20T08:58:53;22.10;99.90
8002;DHT22;4046;48.774;8.732;2022-11-20T09:01:20;22.00;99.90
8002;DHT22;4046;48.774;8.732;2022-11-20T09:03:46;22.10;99.90
8002;DHT22;4046;48.774;8.732;2022-11-20T09:06:14;22.10;99.90
8002;DHT22;4046;48.774;8.732;2022-11-20T09:08:40;22.10;99.90
8002;DHT22;4046;48.774;8.732;2022-11-20T09:11:07;22.00;99.90
8002;DHT22;4046;48.774;8.732;2022-11-20T09:13:34;22.10;99.90
8002;DHT22;4046;48.774;8.732;2022-11-20T09:16:07;22.00;99.90
8002;DHT22;4046;48.774;8.732;2022-11-20T09:18:34;22.00;99.90
8002;DHT22;4046;48.774;8.732;2022-11-20T09:21:07;22.00;99.90
8002;DHT22;4046;48.774;8.732;2022-11-20T09:23:35;22.00;99.90
8002;DHT22;4046;48.774;8.732;2022-11-20T09:26:06;22.10;99.90
8002;DHT22;4046;48.774;8.732;2022-11-20T09:28:33;22.10;99.90
8002;DHT22;4046;48.774;8.732;2022-11-20T09:30:59;22.10;99.90
8002;DHT22;4046;48.774;8.732;2022-11-20T09:33:26;22.00;99.90
8002;DHT22;4046;48.774;8.732;2022-11-20T09:35:52;22.00;99.90
8002;DHT22;4046;48.774;8.732;2022-11-20T09:38:18;22.00;99.90
8002;DHT22;4046;48.774;8.732;2022-11-20T09:40:58;22.10;99.90
8002;DHT22;4046;48.774;8.732;2022-11-20T09:46:20;22.10;99.90
8002;DHT22;4046;48.774;8.732;2022-11-20T09:54:17;22.00;99.90
8002;DHT22;4046;48.774;8.732;2022-11-20T09:56:56;22.00;99.90
8002;DHT22;4046;48.774;8.732;2022-11-20T09:59:38;22.00;99.90
8002;DHT22;4046;48.774;8.732;2022-11-20T10:05:09;22.00;99.90
8002;DHT22;4046;48.774;8.732;2022-11-20T10:08:07;22.00;99.90
8002;DHT22;4046;48.774;8.732;2022-11-20T10:10:43;22.00;99.90
8002;DHT22;4046;48.774;8.732;2022-11-20T10:16:13;22.00;99.90
8002;DHT22;4046;48.774;8.732;2022-11-20T10:18:57;22.00;99.90
8002;DHT22;4046;48.774;8.732;2022-11-20T10:24:27;22.00;99.90
8002;DHT22;4046;48.774;8.732;2022-11-20T10:29:43;22.00;99.90
8002;DHT22;4046;48.774;8.732;2022-11-20T10:32:18;22.10;99.90
8002;DHT22;4046;48.774;8.732;2022-11-20T10:34:52;22.10;99.90
8002;DHT22;4046;48.774;8.732;2022-11-20T10:37:28;22.10;99.90
8002;DHT22;4046;48.774;8.732;2022-11-20T10:42:45;22.20;99.90
8002;DHT22;4046;48.774;8.732;2022-11-20T10:45:18;22.70;99.90
8002;DHT22;4046;48.774;8.732;2022-11-20T10:47:47;24.10;99.90
8002;DHT22;4046;48.774;8.732;2022-11-20T10:50:18;23.60;99.90
8002;DHT22;4046;48.774;8.732;2022-11-20T10:52:51;23.60;99.90
8002;DHT22;4046;48.774;8.732;2022-11-20T10:55:40;23.40;99.90
8002;DHT22;4046;48.774;8.732;2022-11-20T11:01:17;23.80;99.90
8002;DHT22;4046;48.774;8.732;2022-11-20T11:03:44;24.20;99.90
8002;DHT22;4046;48.774;8.732;2022-11-20T11:06:32;24.20;99.90
8002;DHT22;4046;48.774;8.732;2022-11-20T11:09:04;24.20;99.90
8002;DHT22;4046;48.774;8.732;2022-11-20T11:11:34;24.60;99.90
8002;DHT22;4046;48.774;8.732;2022-11-20T11:14:06;24.50;99.90
8002;DHT22;4046;48.774;8.732;2022-11-20T11:16:33;24.10;99.90
8002;DHT22;4046;48.774;8.732;2022-11-20T11:19:11;24.30;99.90
8002;DHT22;4046;48.774;8.732;2022-11-20T11:21:37;24.50;99.90
8002;DHT22;4046;48.774;8.732;2022-11-20T11:24:28;24.80;99.90
8002;DHT22;4046;48.774;8.732;2022-11-20T11:27:11;26.00;99.90
8002;DHT22;4046;48.774;8.732;2022-11-20T11:29:37;26.40;99.90
8002;DHT22;4046;48.774;8.732;2022-11-20T11:32:11;27.00;99.90
8002;DHT22;4046;48.774;8.732;2022-11-20T11:34:37;27.50;99.90
8002;DHT22;4046;48.774;8.732;2022-11-20T11:37:05;26.70;99.90
8002;DHT22;4046;48.774;8.732;2022-11-20T11:39:39;27.10;99.90
8002;DHT22;4046;48.774;8.732;2022-11-20T11:42:13;27.00;99.90
8002;DHT22;4046;48.774;8.732;2022-11-20T11:44:46;26.10;99.90
8002;DHT22;4046;48.774;8.732;2022-11-20T11:53:09;26.50;99.90
8002;DHT22;4046;48.774;8.732;2022-11-20T11:55:52;25.70;99.90
8002;DHT22;4046;48.774;8.732;2022-11-20T11:58:44;25.20;99.90
8002;DHT22;4046;48.774;8.732;2022-11-20T12:06:34;25.30;99.90
8002;DHT22;4046;48.774;8.732;2022-11-20T12:09:05;25.00;99.90
8002;DHT22;4046;48.774;8.732;2022-11-20T12:11:54;25.70;99.90
8002;DHT22;4046;48.774;8.732;2022-11-20T12:14:34;25.90;99.90
8002;DHT22;4046;48.774;8.732;2022-11-20T12:17:02;25.20;99.90
8002;DHT22;4046;48.774;8.732;2022-11-20T12:19:33;24.90;99.90
8002;DHT22;4046;48.774;8.732;2022-11-20T12:25:27;24.80;99.90
8002;DHT22;4046;48.774;8.732;2022-11-20T12:36:38;24.30;99.90
8002;DHT22;4046;48.774;8.732;2022-11-20T12:39:22;24.30;99.90
8002;DHT22;4046;48.774;8.732;2022-11-20T12:42:19;24.30;99.90
8002;DHT22;4046;48.774;8.732;2022-11-20T12:59:21;22.90;99.90
8002;DHT22;4046;48.774;8.732;2022-11-20T13:01:55;22.80;99.90
8002;DHT22;4046;48.774;8.732;2022-11-20T13:07:08;22.60;99.90
8002;DHT22;4046;48.774;8.732;2022-11-20T13:09:40;22.60;99.90
8002;DHT22;4046;48.774;8.732;2022-11-20T13:12:16;22.50;99.90
8002;DHT22;4046;48.774;8.732;2022-11-20T13:17:36;22.40;99.90
8002;DHT22;4046;48.774;8.732;2022-11-20T13:20:12;22.30;99.90
8002;DHT22;4046;48.774;8.732;2022-11-20T13:22:47;22.30;99.90
8002;DHT22;4046;48.774;8.732;2022-11-20T13:27:50;22.20;99.90
8002;DHT22;4046;48.774;8.732;2022-11-20T13:30:19;22.10;99.90
8002;DHT22;4046;48.774;8.732;2022-11-20T13:33:21;22.20;99.90
8002;DHT22;4046;48.774;8.732;2022-11-20T13:35:57;22.10;99.90
8002;DHT22;4046;48.774;8.732;2022-11-20T13:38:23;22.10;99.90
8002;DHT22;4046;48.774;8.732;2022-11-20T13:40:53;22.10;99.90
8002;DHT22;4046;48.774;8.732;2022-11-20T13:46:06;22.00;99.90
8002;DHT22;4046;48.774;8.732;2022-11-20T13:48:44;22.10;99.90
8002;DHT22;4046;48.774;8.732;2022-11-20T13:57:03;22.00;99.90
8002;DHT22;4046;48.774;8.732;2022-11-20T13:59:57;22.00;99.90
8002;DHT22;4046;48.774;8.732;2022-11-20T14:02:27;22.00;99.90
8002;DHT22;4046;48.774;8.732;2022-11-20T14:04:58;22.00;99.90
8002;DHT22;4046;48.774;8.732;2022-11-20T14:07:31;22.00;99.90
8002;DHT22;4046;48.774;8.732;2022-11-20T14:09:58;22.00;99.90
8002;DHT22;4046;48.774;8.732;2022-11-20T14:12:32;22.00;99.90
8002;DHT22;4046;48.774;8.732;2022-11-20T14:15:00;21.90;99.90
8002;DHT22;4046;48.774;8.732;2022-11-20T14:17:32;21.90;99.90
8002;DHT22;4046;48.774;8.732;2022-11-20T14:20:06;21.90;99.90
8002;DHT22;4046;48.774;8.732;2022-11-20T14:22:38;21.90;99.90
8002;DHT22;4046;48.774;8.732;2022-11-20T14:27:46;21.90;99.90
8002;DHT22;4046;48.774;8.732;2022-11-20T14:30:22;21.90;99.90
8002;DHT22;4046;48.774;8.732;2022-11-20T14:32:49;21.90;99.90
8002;DHT22;4046;48.774;8.732;2022-11-20T14:35:27;21.90;99.90
8002;DHT22;4046;48.774;8.732;2022-11-20T14:37:54;21.90;99.90
8002;DHT22;4046;48.774;8.732;2022-11-20T14:40:32;21.90;99.90
8002;DHT22;4046;48.774;8.732;2022-11-20T14:43:01;21.90;99.90
8002;DHT22;4046;48.774;8.732;2022-11-20T14:45:28;21.80;99.90
8002;DHT22;4046;48.774;8.732;2022-11-20T14:47:56;21.90;99.90
8002;DHT22;4046;48.774;8.732;2022-11-20T14:50:25;21.90;99.90
8002;DHT22;4046;48.774;8.732;2022-11-20T14:52:58;21.90;99.90
8002;DHT22;4046;48.774;8.732;2022-11-20T14:55:30;21.80;99.90
8002;DHT22;4046;48.774;8.732;2022-11-20T14:58:05;21.90;99.90
8002;DHT22;4046;48.774;8.732;2022-11-20T15:00:33;21.80;99.90
8002;DHT22;4046;48.774;8.732;2022-11-20T15:03:00;21.90;99.90
8002;DHT22;4046;48.774;8.732;2022-11-20T15:05:46;21.90;99.90
8002;DHT22;4046;48.774;8.732;2022-11-20T15:08:14;21.80;99.90
8002;DHT22;4046;48.774;8.732;2022-11-20T15:10:49;21.90;99.90
8002;DHT22;4046;48.774;8.732;2022-11-20T15:13:39;21.80;99.90
8002;DHT22;4046;48.774;8.732;2022-11-20T15:16:17;21.80;99.90
8002;DHT22;4046;48.774;8.732;2022-11-20T15:18:43;21.80;99.90
8002;DHT22;4046;48.774;8.732;2022-11-20T15:21:13;21.80;99.90
8002;DHT22;4046;48.774;8.732;2022-11-20T15:23:39;21.80;99.90
8002;DHT22;4046;48.774;8.732;2022-11-20T15:26:07;21.80;99.90
8002;DHT22;4046;48.774;8.732;2022-11-20T15:28:39;21.80;99.90
8002;DHT22;4046;48.774;8.732;2022-11-20T15:31:06;21.80;99.90
8002;DHT22;4046;48.774;8.732;2022-11-20T15:33:33;21.80;99.90
8002;DHT22;4046;48.774;8.732;2022-11-20T15:35:59;21.80;99.90
8002;DHT22;4046;48.774;8.732;2022-11-20T15:38:26;21.80;99.90
8002;DHT22;4046;48.774;8.732;2022-11-20T15:40:52;21.80;99.90
8002;DHT22;4046;48.774;8.732;2022-11-20T15:43:18;21.70;99.90
8002;DHT22;4046;48.774;8.732;2022-11-20T15:45:46;21.70;99.90
8002;DHT22;4046;48.774;8.732;2022-11-20T15:48:21;21.70;99.90
8002;DHT22;4046;48.774;8.732;2022-11-20T15:50:59;21.60;99.90
8002;DHT22;4046;48.774;8.732;2022-11-20T15:53:28;21.60;99.90
8002;DHT22;4046;48.774;8.732;2022-11-20T15:55:54;21.60;99.90
8002;DHT22;4046;48.774;8.732;2022-11-20T15:58:20;21.60;99.90
8002;DHT22;4046;48.774;8.732;2022-11-20T16:00:48;21.60;99.90
8002;DHT22;4046;48.774;8.732;2022-11-20T16:03:15;21.60;99.90
8002;DHT22;4046;48.774;8.732;2022-11-20T16:05:42;21.60;99.90
8002;DHT22;4046;48.774;8.732;2022-11-20T16:08:09;21.60;99.90
8002;DHT22;4046;48.774;8.732;2022-11-20T16:10:35;21.60;99.90
8002;DHT22;4046;48.774;8.732;2022-11-20T16:13:02;21.60;99.90
8002;DHT22;4046;48.774;8.732;2022-11-20T16:15:52;21.60;99.90
8002;DHT22;4046;48.774;8.732;2022-11-20T16:18:20;21.60;99.90
8002;DHT22;4046;48.774;8.732;2022-11-20T16:20:50;21.70;99.90
8002;DHT22;4046;48.774;8.732;2022-11-20T16:23:17;21.80;99.90
8002;DHT22;4046;48.774;8.732;2022-11-20T16:25:44;21.90;99.90
8002;DHT22;4046;48.774;8.732;2022-11-20T16:28:11;22.00;99.90
8002;DHT22;4046;48.774;8.732;2022-11-20T16:30:37;22.00;99.90
8002;DHT22;4046;48.774;8.732;2022-11-20T16:33:04;22.20;99.90
8002;DHT22;4046;48.774;8.732;2022-11-20T16:35:34;22.20;99.90
8002;DHT22;4046;48.774;8.732;2022-11-20T16:38:00;22.30;99.90
8002;DHT22;4046;48.774;8.732;2022-11-20T16:40:26;22.40;99.90
8002;DHT22;4046;48.774;8.732;2022-11-20T16:42:53;22.50;99.90
8002;DHT22;4046;48.774;8.732;2022-11-20T16:45:20;22.50;99.90
8002;DHT22;4046;48.774;8.732;2022-11-20T16:47:46;22.60;99.90
8002;DHT22;4046;48.774;8.732;2022-11-20T16:50:12;22.60;99.90
8002;DHT22;4046;48.774;8.732;2022-11-20T16:52:38;22.70;99.90
8002;DHT22;4046;48.774;8.732;2022-11-20T16:55:05;22.70;99.90
8002;DHT22;4046;48.774;8.732;2022-11-20T16:57:31;22.80;99.90
8002;DHT22;4046;48.774;8.732;2022-11-20T17:00:01;22.80;99.90
8002;DHT22;4046;48.774;8.732;2022-11-20T17:02:27;22.90;99.90
8002;DHT22;4046;48.774;8.732;2022-11-20T17:04:53;22.90;99.90
8002;DHT22;4046;48.774;8.732;2022-11-20T17:07:20;22.90;99.90
8002;DHT22;4046;48.774;8.732;2022-11-20T17:09:47;23.00;99.90
8002;DHT22;4046;48.774;8.732;2022-11-20T17:12:13;23.00;99.90
8002;DHT22;4046;48.774;8.732;2022-11-20T17:14:39;23.00;99.90
8002;DHT22;4046;48.774;8.732;2022-11-20T17:17:05;23.00;99.90
8002;DHT22;4046;48.774;8.732;2022-11-20T17:19:32;23.00;99.90
8002;DHT22;4046;48.774;8.732;2022-11-20T17:21:58;23.00;99.90
8002;DHT22;4046;48.774;8.732;2022-11-20T17:24:24;23.00;99.90
8002;DHT22;4046;48.774;8.732;2022-11-20T17:26:50;23.00;99.90
8002;DHT22;4046;48.774;8.732;2022-11-20T17:29:17;23.00;99.90
8002;DHT22;4046;48.774;8.732;2022-11-20T17:31:46;23.00;99.90
8002;DHT22;4046;48.774;8.732;2022-11-20T17:34:14;23.00;99.90
8002;DHT22;4046;48.774;8.732;2022-11-20T17:36:42;23.00;99.90
8002;DHT22;4046;48.774;8.732;2022-11-20T17:39:13;23.00;99.90
8002;DHT22;4046;48.774;8.732;2022-11-20T17:41:40;23.00;99.90
8002;DHT22;4046;48.774;8.732;2022-11-20T17:44:09;23.00;99.90